Time;durP1;ratioP1;P1;durP2;ratioP2;P2;SDS_P1;SDS_P2;PMS_P1;PMS_P2;Temp;Humidity;BMP_temperature;BMP_pressure;BME280_temperature;BME280_humidity;BME280_pressure;Samples;Min_cycle;Max_cycle;Signal;HPM_P1;HPM_P2
2022/06/22 00:01:54;;;;;;;;;;;21.00;61.60;;;20.35;57.38;95756.88;4264634;33;20121;-82
2022/06/22 00:04:25;;;;;;;;;;;21.00;61.50;;;20.35;57.54;95756.03;4269213;33;19902;-82
2022/06/22 00:06:56;;;;;;;;;;;21.00;61.60;;;20.36;57.34;95752.13;4292679;33;20174;-82
2022/06/22 00:09:28;;;;;;;;;;;21.00;61.60;;;20.35;57.47;95750.47;4317050;32;19902;-82
2022/06/22 00:11:57;;;;;;;;;;;21.00;61.50;;;20.35;57.38;95756.03;4292926;33;20069;-82
2022/06/22 00:14:28;;;;;;;;;;;21.00;61.40;;;20.35;57.45;95756.03;4240085;33;19901;-82
2022/06/22 00:16:57;;;;;;;;;;;21.00;61.50;;;20.34;57.44;95751.63;4263880;33;19902;-82
2022/06/22 00:19:30;;;;;;;;;;;21.00;61.40;;;20.33;57.32;95745.28;4263881;33;20013;-82
2022/06/22 00:21:59;;;;;;;;;;;21.00;61.60;;;20.32;57.49;95745.63;4240325;33;20212;-82
2022/06/22 00:24:47;;;;;;;;;;;21.00;61.60;;;20.32;57.52;95748.41;4239907;33;20354;-82
2022/06/22 00:27:21;;;;;;;;;;;20.90;61.60;;;20.32;57.48;95756.75;4238800;33;20153;-82
2022/06/22 00:30:14;;;;;;;;;;;21.00;61.70;;;20.31;57.62;95744.00;4292529;33;20239;-81
2022/06/22 00:33:02;;;;;;;;;;;20.90;61.70;;;20.30;57.66;95753.50;4268604;33;19908;-81
2022/06/22 00:35:55;;;;;;;;;;;21.00;61.90;;;20.29;57.68;95757.44;4291190;33;20442;-81
2022/06/22 00:38:29;;;;;;;;;;;20.90;61.80;;;20.29;57.48;95746.31;4291621;33;19909;-81
2022/06/22 00:41:04;;;;;;;;;;;20.90;61.70;;;20.28;57.48;95753.84;4267781;33;19979;-81
2022/06/22 00:43:34;;;;;;;;;;;20.90;61.70;;;20.28;57.59;95750.25;4278597;33;19902;-81
2022/06/22 00:46:02;;;;;;;;;;;20.90;61.70;;;20.27;57.69;95749.44;4238616;33;20170;-81
2022/06/22 00:48:33;;;;;;;;;;;20.90;61.80;;;20.27;57.57;95749.44;4250136;33;20159;-81
2022/06/22 00:51:04;;;;;;;;;;;20.90;61.80;;;20.27;57.68;95738.31;4268367;33;19901;-82
2022/06/22 00:53:37;;;;;;;;;;;20.90;61.90;;;20.26;58.19;95738.66;4268529;33;19934;-82
2022/06/22 00:56:21;;;;;;;;;;;20.90;61.90;;;20.26;57.79;95744.22;4291962;33;20137;-82
2022/06/22 00:59:03;;;;;;;;;;;20.90;61.90;;;20.26;57.59;95741.44;4268399;33;19955;-82
2022/06/22 01:01:37;;;;;;;;;;;20.90;62.00;;;20.24;57.78;95750.94;4292645;33;20387;-82
2022/06/22 01:04:08;;;;;;;;;;;20.90;61.90;;;20.23;57.77;95749.31;4268530;33;19901;-81
2022/06/22 01:06:42;;;;;;;;;;;20.90;62.00;;;20.24;57.76;95748.16;4268106;33;20100;-81
2022/06/22 01:09:18;;;;;;;;;;;20.80;61.90;;;20.23;57.89;95749.31;4289248;33;19998;-81
2022/06/22 01:14:43;;;;;;;;;;;20.90;62.20;;;20.22;57.89;95747.69;4266745;33;20130;-82
2022/06/22 01:17:20;;;;;;;;;;;20.90;62.00;;;20.22;57.80;95752.44;4292702;33;19913;-82
2022/06/22 01:19:54;;;;;;;;;;;20.90;62.10;;;20.21;57.99;95746.06;4292859;33;19901;-81
2022/06/22 01:22:44;;;;;;;;;;;20.80;62.00;;;20.21;57.91;95751.63;4249660;33;19909;-81
2022/06/22 01:25:36;;;;;;;;;;;20.90;62.20;;;20.20;58.08;95741.66;4257938;33;19961;-81
2022/06/22 01:28:07;;;;;;;;;;;20.80;62.20;;;20.19;57.89;95742.00;4262746;33;19902;-81
2022/06/22 01:30:38;;;;;;;;;;;20.80;62.10;;;20.19;57.88;95744.78;4290956;33;19902;-81
2022/06/22 01:33:08;;;;;;;;;;;20.80;62.20;;;20.18;57.95;95740.38;4291643;33;19908;-81
2022/06/22 01:35:38;;;;;;;;;;;20.80;62.10;;;20.17;58.02;95747.94;4266867;33;19911;-81
2022/06/22 01:38:15;;;;;;;;;;;20.80;62.10;;;20.17;58.00;95745.16;4291795;33;20032;-81
2022/06/22 01:40:46;;;;;;;;;;;20.80;62.20;;;20.16;58.07;95760.19;4316319;32;20381;-82
2022/06/22 01:43:23;;;;;;;;;;;20.80;62.10;;;20.17;58.04;95766.56;4292807;33;19901;-81
2022/06/22 01:45:56;;;;;;;;;;;20.80;62.20;;;20.16;57.82;95768.53;4291413;33;19902;-82
2022/06/22 01:48:29;;;;;;;;;;;20.80;62.20;;;20.15;57.74;95769.69;4291567;33;20037;-82
2022/06/22 01:50:59;;;;;;;;;;;20.80;62.20;;;20.14;58.27;95759.72;4292785;33;19902;-82
2022/06/22 01:53:31;;;;;;;;;;;20.80;62.20;;;20.14;57.89;95762.50;4291732;33;19901;-82
2022/06/22 01:56:03;;;;;;;;;;;20.80;62.20;;;20.15;58.15;95766.09;4291060;33;20049;-82
2022/06/22 01:58:50;;;;;;;;;;;20.80;62.20;;;20.15;58.26;95764.13;4292457;33;19955;-81
2022/06/22 02:01:23;;;;;;;;;;;20.80;62.30;;;20.14;57.89;95770.84;4291408;33;20011;-82
2022/06/22 02:04:17;;;;;;;;;;;20.80;62.30;;;20.14;57.57;95775.59;4291567;33;19901;-82
2022/06/22 02:10:08;;;;;;;;;;;20.80;62.20;;;20.12;58.11;95764.81;4267345;33;19901;-80
2022/06/22 02:12:46;;;;;;;;;;;20.80;62.20;;;20.12;58.24;95762.03;4293626;33;19910;-81
2022/06/22 02:15:22;;;;;;;;;;;20.80;62.10;;;20.12;57.88;95764.81;4278181;33;20113;-80
2022/06/22 02:17:51;;;;;;;;;;;20.80;62.20;;;20.13;58.20;95769.22;4240368;33;20259;-80
2022/06/22 02:20:33;;;;;;;;;;;20.80;62.40;;;20.12;58.04;95778.69;4264079;33;20230;-80
2022/06/22 02:23:12;;;;;;;;;;;20.80;62.30;;;20.12;58.31;95781.47;4264891;33;20226;-81
2022/06/22 02:25:45;;;;;;;;;;;20.80;62.40;;;20.12;58.14;95781.47;4264316;33;20124;-81
2022/06/22 02:28:14;;;;;;;;;;;20.80;62.40;;;20.12;58.23;95786.25;4265769;33;20067;-81
2022/06/22 02:30:44;;;;;;;;;;;20.70;62.30;;;20.11;57.97;95784.63;4240652;33;20170;-80
2022/06/22 02:33:13;;;;;;;;;;;20.80;62.30;;;20.11;58.15;95788.19;4265654;33;19913;-80
2022/06/22 02:35:42;;;;;;;;;;;20.80;62.20;;;20.11;58.11;95790.16;4265075;33;19909;-80
2022/06/22 02:38:12;;;;;;;;;;;20.80;62.40;;;20.10;58.06;95786.56;4264947;33;20162;-80
2022/06/22 02:46:18;;;;;;;;;;;20.70;62.30;;;20.10;58.15;95797.69;4269283;33;20016;-81
2022/06/22 02:48:49;;;;;;;;;;;20.70;62.30;;;20.11;58.25;95798.50;4294217;33;19908;-81
2022/06/22 02:51:23;;;;;;;;;;;20.80;62.40;;;20.11;58.23;95798.50;4294773;33;20121;-81
2022/06/22 02:53:52;;;;;;;;;;;20.70;62.30;;;20.10;58.02;95772.66;4318230;32;19901;-81
2022/06/22 02:56:24;;;;;;;;;;;20.70;62.30;;;20.10;58.01;95767.13;4293231;33;19967;-81
2022/06/22 02:58:53;;;;;;;;;;;20.80;62.20;;;20.09;58.12;95765.50;4293582;33;19901;-80
2022/06/22 03:01:25;;;;;;;;;;;20.70;62.40;;;20.10;58.16;95777.44;4293442;33;20007;-81
2022/06/22 03:03:55;;;;;;;;;;;20.80;62.30;;;20.10;58.58;95780.22;4293451;33;20182;-81
2022/06/22 03:06:29;;;;;;;;;;;20.70;62.30;;;20.10;57.83;95774.66;4294135;33;19901;-81
2022/06/22 03:08:58;;;;;;;;;;;20.70;62.20;;;20.10;57.69;95783.78;4269248;33;19901;-80
2022/06/22 03:11:26;;;;;;;;;;;20.80;62.00;;;20.10;57.64;95788.53;4293355;33;20321;-80
2022/06/22 03:14:00;;;;;;;;;;;20.70;62.00;;;20.11;57.75;95779.06;4269500;33;19901;-81
2022/06/22 03:16:34;;;;;;;;;;;20.80;61.90;;;20.12;57.44;95769.56;4292602;33;19908;-81
2022/06/22 03:19:06;;;;;;;;;;;20.70;61.80;;;20.12;57.73;95787.03;4293258;33;19908;-81
2022/06/22 03:21:35;;;;;;;;;;;20.80;61.80;;;20.12;57.59;95787.03;4293117;33;20109;-80
2022/06/22 03:24:07;;;;;;;;;;;20.80;61.80;;;20.13;57.57;95788.66;4293015;33;19909;-81
2022/06/22 03:26:38;;;;;;;;;;;20.80;61.70;;;20.12;57.73;95784.25;4268397;33;19982;-81
2022/06/22 03:29:11;;;;;;;;;;;20.80;61.80;;;20.14;57.62;95795.84;4293369;33;20053;-81
2022/06/22 03:31:43;;;;;;;;;;;20.80;61.70;;;20.15;57.38;95785.53;4292965;33;19908;-81
2022/06/22 03:34:15;;;;;;;;;;;20.80;61.50;;;20.16;57.31;95790.75;4294261;33;20398;-81
2022/06/22 03:36:47;;;;;;;;;;;20.80;61.40;;;20.17;57.16;95789.63;4276195;33;19902;-80
2022/06/22 03:39:17;;;;;;;;;;;20.80;61.20;;;20.18;57.09;95799.56;4264040;33;19987;-80
2022/06/22 03:41:49;;;;;;;;;;;20.80;61.00;;;20.20;57.06;95802.81;4280139;33;19901;-81
2022/06/22 03:44:21;;;;;;;;;;;20.80;61.10;;;20.20;56.82;95797.25;4293534;33;20139;-80
2022/06/22 03:46:54;;;;;;;;;;;20.80;60.80;;;20.22;56.71;95789.38;4268197;33;20060;-81
2022/06/22 03:49:26;;;;;;;;;;;20.80;60.70;;;20.24;56.94;95791.84;4292755;33;19909;-80
2022/06/22 03:51:57;;;;;;;;;;;20.90;60.80;;;20.26;56.86;95794.25;4269033;33;19901;-80
2022/06/22 03:54:28;;;;;;;;;;;20.90;61.00;;;20.27;56.72;95793.09;4293667;32;20291;-81
2022/06/22 03:56:59;;;;;;;;;;;20.90;60.90;;;20.29;56.66;95793.56;4278081;33;20033;-81
2022/06/22 03:59:28;;;;;;;;;;;20.90;60.80;;;20.29;56.77;95786.03;4264041;33;19902;-80
2022/06/22 04:01:59;;;;;;;;;;;21.00;60.90;;;20.30;56.89;95790.44;4240182;33;20090;-81
2022/06/22 04:04:27;;;;;;;;;;;21.00;61.00;;;20.32;56.96;95801.25;4265047;33;20002;-80
2022/06/22 04:06:56;;;;;;;;;;;21.00;61.00;;;20.33;57.15;95797.31;4263803;33;19909;-80
2022/06/22 04:09:26;;;;;;;;;;;21.00;61.30;;;20.35;57.51;95803.31;4263566;33;20001;-82
2022/06/22 04:11:57;;;;;;;;;;;21.00;61.40;;;20.35;57.67;95798.56;4264856;33;19901;-82
2022/06/22 04:14:30;;;;;;;;;;;21.00;61.50;;;20.37;57.31;95803.78;4264518;33;20135;-82
2022/06/22 04:17:04;;;;;;;;;;;21.00;61.60;;;20.39;57.59;95809.81;4239584;33;19909;-82
2022/06/22 04:19:36;;;;;;;;;;;21.00;61.70;;;20.41;57.92;95815.84;4239826;33;19901;-81
2022/06/22 04:22:08;;;;;;;;;;;21.10;62.20;;;20.43;58.05;95824.66;4263449;33;20023;-81
2022/06/22 04:24:45;;;;;;;;;;;21.10;62.40;;;20.43;58.73;95812.72;4239155;33;19999;-82
2022/06/22 04:27:17;;;;;;;;;;;21.10;63.00;;;20.44;58.52;95815.16;4263317;33;19902;-81
2022/06/22 04:29:47;;;;;;;;;;;21.10;62.90;;;20.46;58.82;95823.94;4263428;33;19916;-81
2022/06/22 04:32:20;;;;;;;;;;;21.10;63.20;;;20.47;58.80;95825.56;4239511;33;19902;-81
2022/06/22 04:34:52;;;;;;;;;;;21.10;63.10;;;20.48;58.98;95829.97;4262468;33;20250;-80
2022/06/22 04:37:31;;;;;;;;;;;21.10;63.20;;;20.48;59.13;95827.19;4263168;33;20230;-80
2022/06/22 04:40:12;;;;;;;;;;;21.10;63.40;;;20.49;59.22;95834.38;4264210;33;19916;-81
2022/06/22 04:42:41;;;;;;;;;;;21.10;63.60;;;20.51;59.50;95840.41;4239515;33;20087;-81
2022/06/22 04:45:26;;;;;;;;;;;21.20;63.80;;;20.52;59.73;95846.81;4239120;33;19991;-81
2022/06/22 04:47:58;;;;;;;;;;;21.20;64.10;;;20.54;59.58;95853.66;4280088;33;19924;-80
2022/06/22 04:50:26;;;;;;;;;;;21.20;64.00;;;20.54;59.89;95842.53;4291956;33;19917;-81
2022/06/22 04:52:55;;;;;;;;;;;21.20;64.30;;;20.56;59.88;95847.72;4267886;33;19982;-80
2022/06/22 04:55:26;;;;;;;;;;;21.20;64.20;;;20.59;60.16;95843.47;4291509;33;19902;-80
2022/06/22 04:57:57;;;;;;;;;;;21.30;64.40;;;20.59;59.85;95855.38;4292288;33;20109;-81
2022/06/22 05:00:28;;;;;;;;;;;21.30;64.30;;;20.62;59.83;95859.44;4293375;33;20091;-80
2022/06/22 05:03:00;;;;;;;;;;;21.30;64.40;;;20.63;59.92;95872.19;4293414;33;20036;-81
2022/06/22 05:05:31;;;;;;;;;;;21.30;64.30;;;20.65;59.66;95869.88;4267656;33;19909;-80
2022/06/22 05:08:03;;;;;;;;;;;21.30;64.10;;;20.66;59.51;95871.50;4292032;33;19910;-81
2022/06/22 05:10:42;;;;;;;;;;;21.30;64.10;;;20.68;59.64;95875.56;4291888;33;20013;-81
2022/06/22 05:13:15;;;;;;;;;;;21.30;64.10;;;20.70;59.64;95876.03;4293014;33;20101;-80
2022/06/22 05:15:46;;;;;;;;;;;21.40;63.90;;;20.73;59.05;95870.94;4291314;33;19910;-81
2022/06/22 05:18:23;;;;;;;;;;;21.40;63.50;;;20.75;59.30;95877.00;4293224;33;19908;-81
2022/06/22 05:20:56;;;;;;;;;;;21.40;63.50;;;20.75;59.06;95897.28;4292146;33;19968;-80
2022/06/22 05:23:25;;;;;;;;;;;21.40;63.40;;;20.76;58.96;95892.53;4293309;33;20126;-80
2022/06/22 05:25:55;;;;;;;;;;;21.40;63.20;;;20.76;58.84;95890.56;4291840;33;19949;-80
2022/06/22 05:28:28;;;;;;;;;;;21.40;63.10;;;20.77;58.65;95889.41;4268182;33;19915;-80
2022/06/22 05:31:04;;;;;;;;;;;21.40;63.20;;;20.78;59.22;95891.03;4292109;33;19968;-80
2022/06/22 05:33:35;;;;;;;;;;;21.40;63.40;;;20.78;58.83;95895.81;4277062;33;20154;-81
2022/06/22 05:36:07;;;;;;;;;;;21.40;63.10;;;20.77;58.77;95896.97;4262636;33;19902;-80
2022/06/22 05:38:36;;;;;;;;;;;21.40;63.20;;;20.76;58.80;95898.91;4263108;33;20013;-80
2022/06/22 05:41:07;;;;;;;;;;;21.40;62.90;;;20.75;59.04;95888.94;4263206;33;20142;-80
2022/06/22 05:43:37;;;;;;;;;;;21.40;63.10;;;20.75;59.03;95890.91;4263745;33;19902;-80
2022/06/22 05:46:06;;;;;;;;;;;21.40;63.30;;;20.76;59.09;95898.91;4262552;33;20437;-80
2022/06/22 05:48:41;;;;;;;;;;;21.40;63.40;;;20.76;59.36;95896.13;4241812;33;20258;-80
2022/06/22 05:51:16;;;;;;;;;;;21.40;63.40;;;20.75;59.12;95880.59;4241793;33;19902;-80
2022/06/22 05:53:48;;;;;;;;;;;21.40;63.20;;;20.75;59.25;95885.34;4241793;33;19902;-80
2022/06/22 05:56:20;;;;;;;;;;;21.40;63.20;;;20.77;59.32;95888.59;4265636;33;20102;-80
2022/06/22 05:58:56;;;;;;;;;;;21.40;63.60;;;20.78;59.39;95881.88;4265146;33;19909;-80
2022/06/22 06:01:29;;;;;;;;;;;21.40;63.50;;;20.79;59.25;95891.84;4264795;33;19910;-81
2022/06/22 06:04:02;;;;;;;;;;;21.40;63.50;;;20.81;59.19;95890.34;4265360;33;19909;-81
2022/06/22 06:06:35;;;;;;;;;;;21.50;63.50;;;20.81;59.18;95887.56;4263938;33;20109;-80
2022/06/22 06:09:06;;;;;;;;;;;21.50;63.60;;;20.84;59.17;95880.50;4241393;33;20121;-80
2022/06/22 06:11:40;;;;;;;;;;;21.50;63.60;;;20.85;59.07;95880.13;4265139;33;19916;-80
2022/06/22 06:14:14;;;;;;;;;;;21.50;63.40;;;20.88;58.88;95877.81;4280695;33;19908;-80
2022/06/22 06:16:48;;;;;;;;;;;21.50;64.00;;;20.89;59.00;95885.03;4294383;33;20129;-81
2022/06/22 06:19:20;;;;;;;;;;;21.50;63.30;;;20.91;58.97;95882.72;4294254;33;20076;-81
2022/06/22 06:21:48;;;;;;;;;;;21.50;63.20;;;20.91;58.86;95882.72;4294837;33;19901;-80
2022/06/22 06:24:19;;;;;;;;;;;21.50;63.20;;;20.91;59.17;95886.31;4293510;33;19912;-82
2022/06/22 06:29:40;;;;;;;;;;;21.60;63.20;;;20.93;59.00;95880.41;4294624;33;20237;-81
2022/06/22 06:32:30;;;;;;;;;;;21.60;63.10;;;20.93;58.93;95881.19;4293597;33;19901;-81
2022/06/22 06:35:05;;;;;;;;;;;21.60;63.10;;;20.95;59.05;95878.09;4292906;33;19909;-80
2022/06/22 06:37:55;;;;;;;;;;;21.60;63.40;;;20.96;59.12;95879.72;4293198;33;19901;-81
2022/06/22 06:40:29;;;;;;;;;;;21.60;63.60;;;20.96;59.04;95877.72;4294423;33;19901;-82
2022/06/22 06:43:03;;;;;;;;;;;21.60;63.30;;;20.98;59.19;95880.16;4292949;33;19920;-81
2022/06/22 06:45:32;;;;;;;;;;;21.60;63.40;;;20.99;59.05;95879.00;4292745;33;19997;-81
2022/06/22 06:48:03;;;;;;;;;;;21.60;63.30;;;21.01;59.00;95876.69;4292968;33;19901;-81
2022/06/22 06:50:36;;;;;;;;;;;21.60;63.20;;;21.02;58.54;95867.19;4293487;33;19908;-81
2022/06/22 06:53:23;;;;;;;;;;;21.60;63.00;;;21.04;58.68;95869.63;4269406;33;19909;-80
2022/06/22 06:55:56;;;;;;;;;;;21.70;63.10;;;21.07;58.65;95861.41;4266218;33;20105;-80
2022/06/22 06:58:41;;;;;;;;;;;21.70;63.10;;;21.08;58.82;95857.44;4264277;33;19925;-80
2022/06/22 07:01:21;;;;;;;;;;;21.70;63.00;;;21.09;58.88;95859.09;4265249;33;20276;-80
2022/06/22 07:03:52;;;;;;;;;;;21.70;63.10;;;21.11;58.63;95853.94;4288287;33;19902;-80
2022/06/22 07:06:22;;;;;;;;;;;21.70;62.90;;;21.12;58.50;95855.56;4288033;33;20430;-81
2022/06/22 07:08:55;;;;;;;;;;;21.70;62.80;;;21.13;58.60;95856.41;4240372;33;20002;-80
2022/06/22 07:11:31;;;;;;;;;;;21.70;62.90;;;21.13;58.72;95848.84;4264735;33;19902;-81
2022/06/22 07:14:05;;;;;;;;;;;21.80;62.90;;;21.15;58.60;95859.66;4265209;33;20140;-80
2022/06/22 07:16:34;;;;;;;;;;;21.80;62.90;;;21.18;58.57;95858.16;4263645;33;19902;-81
2022/06/22 07:19:06;;;;;;;;;;;21.80;62.80;;;21.19;58.35;95848.63;4240805;33;19902;-81
2022/06/22 07:21:41;;;;;;;;;;;21.80;62.80;;;21.19;58.23;95854.19;4264330;33;20560;-82
2022/06/22 07:24:15;;;;;;;;;;;21.80;62.60;;;21.21;58.36;95851.88;4265058;33;20029;-82
2022/06/22 07:26:51;;;;;;;;;;;21.80;62.50;;;21.20;58.34;95855.81;4287703;33;19902;-81
2022/06/22 07:29:26;;;;;;;;;;;21.80;62.60;;;21.21;58.35;95857.44;4273570;33;20028;-80
2022/06/22 07:32:01;;;;;;;;;;;21.80;62.30;;;21.20;58.54;95851.06;4269287;33;19901;-80
2022/06/22 07:34:34;;;;;;;;;;;21.80;62.40;;;21.23;58.34;95846.78;4293703;33;20132;-80
2022/06/22 07:37:12;;;;;;;;;;;21.80;62.40;;;21.23;58.23;95841.22;4294218;32;19931;-81
2022/06/22 07:39:43;;;;;;;;;;;21.90;62.60;;;21.24;58.23;95831.69;4293672;33;19934;-80
2022/06/22 07:42:19;;;;;;;;;;;21.90;62.40;;;21.25;58.33;95830.53;4293411;33;19901;-82
2022/06/22 07:45:18;;;;;;;;;;;21.90;62.40;;;21.24;58.39;95831.69;4265786;33;19914;-81
2022/06/22 07:48:19;;;;;;;;;;;21.90;62.50;;;21.19;58.41;95846.66;4242287;33;20081;-81
2022/06/22 07:50:51;;;;;;;;;;;21.80;62.50;;;21.19;58.54;95843.88;4280635;33;20227;-82
2022/06/22 07:53:30;;;;;;;;;;;21.80;62.50;;;21.18;58.50;95835.88;4293905;33;19901;-82
2022/06/22 07:56:02;;;;;;;;;;;21.80;62.60;;;21.19;58.53;95838.28;4292677;33;19917;-81
2022/06/22 07:58:34;;;;;;;;;;;21.80;62.60;;;21.20;58.14;95851.06;4293664;33;20130;-81
2022/06/22 08:01:06;;;;;;;;;;;21.80;62.40;;;21.21;58.43;95844.34;4294076;33;20471;-82
2022/06/22 08:03:52;;;;;;;;;;;;;;;;;;;;;
2022/06/22 08:06:29;;;;;;;;;;;21.80;62.50;;;21.24;58.26;95846.44;4292994;32;19908;-81
2022/06/22 08:09:01;;;;;;;;;;;21.90;62.50;;;21.26;58.13;95838.53;4268050;33;20070;-81
2022/06/22 08:11:34;;;;;;;;;;;21.90;62.40;;;21.27;58.22;95853.25;4292609;33;19987;-82
2022/06/22 08:14:05;;;;;;;;;;;21.90;62.40;;;21.24;58.51;95867.88;4292684;33;19901;-81
2022/06/22 08:16:39;;;;;;;;;;;21.90;62.50;;;21.23;58.50;95861.50;4291243;33;19969;-81
2022/06/22 08:19:08;;;;;;;;;;;21.90;62.50;;;21.23;58.42;95860.72;4291897;33;20136;-82
2022/06/22 08:21:44;;;;;;;;;;;21.90;62.50;;;21.21;58.36;95858.25;4291997;33;20098;-81
2022/06/22 08:24:15;;;;;;;;;;;21.80;62.50;;;21.21;58.30;95863.03;4292523;33;20220;-82
2022/06/22 08:26:44;;;;;;;;;;;21.80;62.40;;;21.19;58.25;95865.34;4292345;33;19920;-81
2022/06/22 08:29:12;;;;;;;;;;;21.80;62.40;;;21.17;58.24;95862.09;4292719;33;20456;-81
2022/06/22 08:31:45;;;;;;;;;;;21.80;62.40;;;21.16;58.31;95869.63;4267224;33;20129;-82
2022/06/22 08:34:15;;;;;;;;;;;21.80;62.60;;;21.15;58.50;95852.09;4292350;33;19967;-82
2022/06/22 08:36:47;;;;;;;;;;;21.80;62.70;;;21.13;58.79;95868.34;4290684;33;20110;-81
2022/06/22 08:39:19;;;;;;;;;;;21.80;62.80;;;21.13;58.76;95879.47;4293002;33;19909;-81
2022/06/22 08:41:53;;;;;;;;;;;21.80;63.00;;;21.11;58.83;95870.66;4291685;33;19909;-81
2022/06/22 08:44:33;;;;;;;;;;;21.80;63.10;;;21.12;59.10;95868.69;4291427;33;19901;-81
2022/06/22 08:47:59;;;;;;;;;;;21.80;63.10;;;21.12;58.82;95877.03;4267191;33;20033;-81
2022/06/22 08:51:13;;;;;;;;;;;21.80;63.20;;;21.11;59.09;95881.00;4181703;33;20357;-82
2022/06/22 08:54:23;;;;;;;;;;;21.70;63.30;;;21.10;59.01;95874.63;4118835;33;20137;-81
2022/06/22 08:56:58;;;;;;;;;;;21.70;63.20;;;21.10;59.02;95869.06;4181311;33;19910;-81
2022/06/22 09:00:06;;;;;;;;;;;21.70;63.20;;;21.10;58.94;95857.09;4266420;33;19909;-82
2022/06/22 09:03:04;;;;;;;;;;;21.70;63.10;;;21.08;58.81;95876.94;4269573;33;20056;-81
2022/06/22 09:06:16;;;;;;;;;;;21.70;63.30;;;21.08;58.98;95871.38;4261949;33;20092;-81
2022/06/22 09:09:11;;;;;;;;;;;21.70;63.20;;;21.05;59.40;95869.28;4264548;33;19909;-80
2022/06/22 09:11:48;;;;;;;;;;;21.70;63.40;;;21.04;58.90;95870.44;4262431;33;19902;-81
2022/06/22 09:14:50;;;;;;;;;;;21.70;63.60;;;21.04;59.22;95876.00;4238827;33;19902;-81
2022/06/22 09:17:45;;;;;;;;;;;21.70;63.40;;;21.03;59.48;95868.81;4225533;33;20080;-81
2022/06/22 09:20:37;;;;;;;;;;;21.70;63.60;;;21.02;59.15;95867.19;4260703;33;20465;-82
2022/06/22 09:23:16;;;;;;;;;;;21.70;63.60;;;21.02;59.20;95867.19;4265573;33;20230;-82
2022/06/22 09:25:49;;;;;;;;;;;21.60;63.40;;;21.03;59.28;95871.59;4288222;33;20222;-82
2022/06/22 09:28:26;;;;;;;;;;;21.70;63.70;;;21.04;59.26;95887.13;4264726;33;20351;-81
2022/06/22 09:31:24;;;;;;;;;;;21.70;63.60;;;21.03;59.18;95868.81;4240745;33;20527;-81
2022/06/22 09:34:02;;;;;;;;;;;21.70;63.60;;;21.05;59.17;95860.09;4265574;33;19902;-81
2022/06/22 09:37:17;;;;;;;;;;;21.70;63.60;;;21.03;59.42;95868.81;4240344;33;20126;-82
2022/06/22 09:40:09;;;;;;;;;;;21.70;63.70;;;21.02;59.20;95869.97;4247583;33;19926;-81
2022/06/22 09:43:02;;;;;;;;;;;21.70;63.60;;;21.04;59.37;95869.63;4264566;33;19928;-81
2022/06/22 09:45:43;;;;;;;;;;;21.60;63.60;;;21.02;59.07;95881.09;4263851;33;20073;-81
2022/06/22 09:48:29;;;;;;;;;;;21.70;63.60;;;21.02;59.21;95875.53;4264575;33;19909;-80
2022/06/22 09:51:21;;;;;;;;;;;21.60;63.50;;;21.00;59.38;95869.50;4264047;33;20306;-82
2022/06/22 09:57:26;;;;;;;;;;;21.60;63.60;;;20.99;59.35;95884.56;4265090;33;19902;-82
2022/06/22 10:00:07;;;;;;;;;;;21.60;63.70;;;20.99;59.38;95884.56;4264105;33;20105;-81
2022/06/22 10:03:44;;;;;;;;;;;21.60;63.60;;;20.97;59.37;95873.78;4264040;33;20015;-82
2022/06/22 10:06:52;;;;;;;;;;;21.60;63.60;;;20.94;59.49;95866.13;4183308;33;19910;-80
2022/06/22 10:09:39;;;;;;;;;;;21.60;63.70;;;20.94;59.52;95866.13;4251242;33;20077;-82
2022/06/22 10:12:31;;;;;;;;;;;21.60;63.80;;;20.92;59.55;95874.00;4240017;33;20100;-82
2022/06/22 10:15:18;;;;;;;;;;;21.50;63.90;;;20.91;59.17;95866.84;4239247;33;19902;-81
2022/06/22 10:18:00;;;;;;;;;;;21.50;63.60;;;20.91;59.51;95866.00;4240091;33;19909;-82
2022/06/22 10:20:39;;;;;;;;;;;21.50;63.80;;;20.91;59.62;95866.00;4263741;33;19909;-82
2022/06/22 10:23:25;;;;;;;;;;;21.50;64.00;;;20.90;59.38;95853.25;4239743;33;20342;-81
2022/06/22 10:26:18;;;;;;;;;;;21.50;63.90;;;20.90;59.51;95858.81;4239449;33;19968;-81
2022/06/22 10:29:14;;;;;;;;;;;21.50;63.90;;;20.91;59.36;95854.88;4264605;33;20134;-81
2022/06/22 10:31:56;;;;;;;;;;;21.50;63.70;;;20.91;59.30;95854.88;4239744;33;20291;-81
2022/06/22 10:34:39;;;;;;;;;;;21.50;63.60;;;20.90;59.27;95847.69;4263614;33;20128;-81
2022/06/22 10:37:52;;;;;;;;;;;21.50;63.70;;;20.90;59.30;95856.03;4265039;33;19902;-80
2022/06/22 10:46:59;;;;;;;;;;;21.50;63.60;;;20.87;59.31;95846.41;4292896;33;19908;-82
2022/06/22 10:49:49;;;;;;;;;;;21.50;63.70;;;20.87;59.37;95851.16;4244990;33;19909;-81
2022/06/22 10:52:46;;;;;;;;;;;21.50;63.70;;;20.85;59.31;95841.19;4239512;33;20307;-82
2022/06/22 10:55:40;;;;;;;;;;;21.50;63.70;;;20.84;59.43;95836.81;4262793;33;19902;-82
2022/06/22 10:58:34;;;;;;;;;;;21.50;63.80;;;20.84;59.35;95842.38;4238095;33;20135;-82
2022/06/22 11:01:38;;;;;;;;;;;21.50;63.70;;;20.84;59.33;95828.47;4239254;33;20115;-81
2022/06/22 11:05:07;;;;;;;;;;;21.50;63.90;;;20.84;59.50;95831.25;4263377;33;19902;-81
2022/06/22 11:08:11;;;;;;;;;;;21.50;63.90;;;20.84;59.82;95831.25;4155144;34;20118;-81
2022/06/22 11:11:10;;;;;;;;;;;21.50;63.90;;;20.84;59.35;95836.81;4154922;34;19910;-81
2022/06/22 11:14:00;;;;;;;;;;;21.50;63.70;;;20.83;59.05;95818.50;4277153;33;20252;-81
2022/06/22 11:16:47;;;;;;;;;;;21.50;63.40;;;20.83;59.58;95832.41;4262447;33;19902;-82
2022/06/22 11:20:04;;;;;;;;;;;21.50;64.00;;;20.83;59.45;95834.34;4263303;33;19914;-82
2022/06/22 11:22:35;;;;;;;;;;;21.50;64.00;;;20.82;59.23;95836.34;4251723;33;19924;-81
2022/06/22 11:32:12;;;;;;;;;;;21.50;63.90;;;20.83;59.46;95843.53;4154623;34;19903;-81
2022/06/22 11:35:24;;;;;;;;;;;21.50;63.90;;;20.83;59.17;95843.53;4313367;32;19902;-81
2022/06/22 11:38:13;;;;;;;;;;;21.50;63.80;;;20.83;59.34;95837.97;4232529;33;19901;-81
2022/06/22 11:41:01;;;;;;;;;;;21.50;63.80;;;20.82;59.38;95844.69;4292844;33;20163;-80
2022/06/22 11:43:47;;;;;;;;;;;21.50;63.70;;;20.82;59.41;95841.91;4290956;33;19908;-81
2022/06/22 11:46:19;;;;;;;;;;;21.50;63.70;;;20.83;59.27;95843.53;4238149;33;20153;-80
2022/06/22 11:49:17;;;;;;;;;;;21.50;63.60;;;20.83;59.56;95832.41;4262696;33;19902;-80
2022/06/22 11:52:37;;;;;;;;;;;21.50;63.70;;;20.84;59.73;95847.94;4238811;33;19902;-81
2022/06/22 11:55:26;;;;;;;;;;;21.50;63.90;;;20.83;59.37;95840.75;4233862;33;20114;-80
2022/06/22 11:59:03;;;;;;;;;;;21.50;63.70;;;20.84;59.49;95833.19;4263482;33;19901;-81
2022/06/22 12:01:59;;;;;;;;;;;21.50;63.70;;;20.83;59.33;95843.53;4127225;34;19904;-80
2022/06/22 12:05:05;;;;;;;;;;;21.50;63.60;;;20.82;59.04;95836.34;4235308;33;20206;-81
2022/06/22 12:08:03;;;;;;;;;;;21.50;63.40;;;20.83;59.25;95839.91;4262440;33;20070;-81
2022/06/22 12:10:58;;;;;;;;;;;21.50;63.70;;;20.83;59.20;95826.84;4248683;33;20133;-81
2022/06/22 12:17:04;;;;;;;;;;;21.50;63.20;;;20.82;59.26;95830.78;4259267;33;19902;-80
2022/06/22 12:19:40;;;;;;;;;;;21.50;63.60;;;20.83;59.08;95821.28;4262428;33;19901;-81
2022/06/22 12:22:19;;;;;;;;;;;21.50;63.50;;;20.83;59.20;95820.44;4262146;33;19924;-80
2022/06/22 12:25:01;;;;;;;;;;;21.50;63.70;;;20.83;58.81;95824.06;4261798;33;20142;-80
2022/06/22 12:27:32;;;;;;;;;;;21.50;63.20;;;20.82;59.17;95811.31;4262107;33;19910;-82
2022/06/22 12:30:18;;;;;;;;;;;21.50;63.40;;;20.83;59.11;95812.09;4258838;33;20317;-82
2022/06/22 12:32:50;;;;;;;;;;;21.50;63.40;;;20.83;59.18;95809.31;4266934;33;19901;-82
2022/06/22 12:35:36;;;;;;;;;;;21.50;63.50;;;20.83;59.22;95812.09;4266814;33;20060;-82
2022/06/22 12:38:15;;;;;;;;;;;21.50;63.60;;;20.82;59.17;95802.94;4291238;33;19902;-82
2022/06/22 12:40:52;;;;;;;;;;;21.50;63.50;;;20.81;59.17;95792.97;4291085;33;19908;-81
2022/06/22 12:44:15;;;;;;;;;;;21.50;63.50;;;20.82;59.14;95816.88;4290898;33;20149;-82
2022/06/22 12:46:57;;;;;;;;;;;21.50;63.40;;;20.83;59.30;95815.72;4243864;33;19901;-81
2022/06/22 12:49:50;;;;;;;;;;;21.50;63.50;;;20.83;59.29;95803.75;4291140;33;20080;-81